Time;durP1;ratioP1;P1;durP2;ratioP2;P2;SDS_P1;SDS_P2;PMS_P1;PMS_P2;Temp;Humidity;BMP_temperature;BMP_pressure;BME280_temperature;BME280_humidity;BME280_pressure;Samples;Min_cycle;Max_cycle;Signal;HPM_P1;HPM_P2
2022/11/04 00:00:19;;;;;;;1.20;1.20;;;19.10;75.80;;;;;;5086572;28;43496;-72
2022/11/04 00:02:52;;;;;;;0.90;0.90;;;19.20;75.60;;;;;;5087490;28;43438;-72
2022/11/04 00:05:20;;;;;;;1.00;1.00;;;19.30;75.10;;;;;;5065763;28;45661;-71
2022/11/04 00:13:15;;;;;;;0.93;0.93;;;19.30;74.80;;;;;;5068160;28;44036;-71
2022/11/04 00:18:29;;;;;;;1.20;1.20;;;19.20;75.10;;;;;;5081545;28;43434;-71
2022/11/04 00:29:14;;;;;;;1.07;1.07;;;19.00;76.00;;;;;;5064552;28;44701;-72
2022/11/04 00:34:28;;;;;;;1.10;1.10;;;19.20;75.60;;;;;;5089350;27;43828;-70
2022/11/04 00:36:56;;;;;;;1.10;1.10;;;19.50;74.90;;;;;;5086556;28;43532;-74
2022/11/04 00:39:24;;;;;;;1.10;1.10;;;19.70;74.30;;;;;;5086558;28;43450;-72
2022/11/04 00:41:52;;;;;;;1.10;1.10;;;19.90;73.40;;;;;;5081581;28;44010;-71
2022/11/04 00:44:20;;;;;;;1.00;1.00;;;20.10;72.70;;;;;;5086938;28;43495;-71
2022/11/04 00:46:49;;;;;;;1.10;1.10;;;20.30;72.00;;;;;;5086190;28;44050;-71
2022/11/04 00:49:17;;;;;;;1.23;1.03;;;20.40;71.50;;;;;;5086739;28;43394;-72
2022/11/04 00:51:45;;;;;;;1.00;1.00;;;20.50;71.20;;;;;;5086046;28;43563;-72
2022/11/04 00:54:13;;;;;;;0.90;0.90;;;20.60;70.90;;;;;;5088697;27;43547;-71
2022/11/04 00:56:41;;;;;;;0.90;0.90;;;20.60;70.60;;;;;;5085674;28;43912;-73
2022/11/04 00:59:10;;;;;;;1.00;1.00;;;20.60;70.70;;;;;;5085985;28;43427;-71
2022/11/04 01:01:41;;;;;;;1.07;1.07;;;20.40;70.80;;;;;;5088026;27;43377;-73
2022/11/04 01:04:11;;;;;;;1.00;1.00;;;20.30;71.50;;;;;;5073121;28;44079;-73
2022/11/04 01:06:39;;;;;;;1.10;1.10;;;20.20;72.10;;;;;;5086329;28;43823;-72
2022/11/04 01:09:08;;;;;;;1.03;1.03;;;20.00;72.30;;;;;;5066420;28;44535;-72
2022/11/04 01:11:36;;;;;;;0.80;0.80;;;19.90;72.60;;;;;;5085973;28;43547;-70
2022/11/04 01:14:04;;;;;;;1.00;1.00;;;19.80;72.90;;;;;;5086032;28;43564;-72
2022/11/04 01:16:32;;;;;;;1.00;1.00;;;19.70;73.20;;;;;;5086291;28;43600;-73
2022/11/04 01:19:00;;;;;;;1.30;1.30;;;19.60;73.80;;;;;;5085438;27;44422;-71
2022/11/04 01:21:29;;;;;;;1.00;1.00;;;19.60;73.90;;;;;;5067842;28;43541;-71
2022/11/04 01:23:57;;;;;;;1.00;1.00;;;19.70;73.80;;;;;;5086345;28;43465;-71
2022/11/04 01:26:25;;;;;;;1.10;1.10;;;19.70;73.50;;;;;;5085516;28;43867;-72
2022/11/04 01:28:54;;;;;;;0.90;0.90;;;19.70;73.50;;;;;;5085721;28;43561;-71
2022/11/04 01:31:23;;;;;;;1.07;1.07;;;19.70;73.60;;;;;;5067402;28;43511;-72
2022/11/04 01:33:52;;;;;;;0.93;0.93;;;19.60;73.90;;;;;;5067754;28;43479;-70
2022/11/04 01:36:20;;;;;;;1.00;1.00;;;19.60;74.00;;;;;;5085841;28;43860;-72
2022/11/04 01:38:49;;;;;;;1.10;1.10;;;19.50;73.80;;;;;;5085732;28;43401;-73
2022/11/04 01:41:18;;;;;;;1.10;1.10;;;19.50;74.00;;;;;;5057705;28;43520;-73
2022/11/04 01:43:48;;;;;;;1.00;1.00;;;19.40;74.20;;;;;;5086187;28;43462;-73
2022/11/04 01:46:36;;;;;;;1.00;1.00;;;19.40;74.80;;;;;;5088037;27;45432;-71
2022/11/04 01:49:06;;;;;;;0.80;0.80;;;19.30;74.80;;;;;;5079541;28;43524;-72
2022/11/04 01:51:35;;;;;;;1.00;1.00;;;19.30;74.70;;;;;;5085072;28;43445;-72
2022/11/04 01:54:05;;;;;;;0.90;0.90;;;19.30;74.80;;;;;;5066546;28;44004;-74
2022/11/04 01:56:33;;;;;;;0.90;0.90;;;19.20;74.90;;;;;;5085504;28;43893;-72
2022/11/04 01:59:03;;;;;;;1.10;1.10;;;19.20;75.30;;;;;;5085044;28;43522;-72
2022/11/04 02:01:31;;;;;;;1.00;1.00;;;19.20;75.20;;;;;;5085885;28;44051;-71
2022/11/04 02:04:24;;;;;;;0.80;0.80;;;19.40;75.00;;;;;;5085874;28;43597;-71
2022/11/04 02:06:49;;;;;;;1.10;1.10;;;19.50;74.30;;;;;;5086914;27;43908;-72
2022/11/04 02:09:18;;;;;;;1.00;1.00;;;19.60;73.90;;;;;;5088618;28;43391;-71
2022/11/04 02:14:31;;;;;;;0.90;0.90;;;19.60;73.90;;;;;;5085120;28;43451;-72
2022/11/04 02:17:02;;;;;;;0.90;0.90;;;19.50;74.00;;;;;;5071349;27;45414;-71
2022/11/04 02:19:40;;;;;;;0.90;0.90;;;19.40;74.30;;;;;;5073958;28;44546;-71
2022/11/04 02:22:22;;;;;;;1.00;1.00;;;19.30;74.80;;;;;;5089028;28;44106;-71
2022/11/04 02:25:04;;;;;;;0.73;0.73;;;19.30;74.80;;;;;;5089051;28;43456;-72
2022/11/04 02:27:37;;;;;;;1.93;1.00;;;19.30;74.80;;;;;;5086500;28;43608;-69
2022/11/04 02:30:08;;;;;;;0.90;0.90;;;19.20;74.90;;;;;;5088870;28;44058;-71
2022/11/04 02:32:51;;;;;;;0.80;0.80;;;19.20;75.00;;;;;;5070157;28;43989;-71
2022/11/04 02:35:22;;;;;;;1.00;1.00;;;19.20;75.50;;;;;;5070682;28;43427;-72
2022/11/04 02:38:01;;;;;;;1.00;1.00;;;19.20;75.30;;;;;;5069587;28;45604;-71
2022/11/04 02:40:33;;;;;;;0.83;0.83;;;19.20;75.30;;;;;;5085665;28;43479;-70
2022/11/04 02:43:02;;;;;;;0.87;0.87;;;19.10;75.20;;;;;;5088859;28;43394;-71
2022/11/04 02:45:35;;;;;;;0.87;0.87;;;19.10;75.30;;;;;;5089152;28;43398;-71
2022/11/04 02:48:05;;;;;;;0.70;0.70;;;19.10;75.70;;;;;;5088375;28;43865;-74
2022/11/04 02:50:34;;;;;;;0.80;0.80;;;19.10;75.60;;;;;;5088328;28;43525;-72
2022/11/04 02:53:03;;;;;;;1.20;1.03;;;19.20;75.20;;;;;;5088556;28;43585;-71
2022/11/04 02:55:34;;;;;;;0.90;0.90;;;19.40;74.70;;;;;;5069926;28;43590;-72
2022/11/04 02:58:02;;;;;;;0.90;0.90;;;19.50;74.10;;;;;;5091076;27;46203;-71
2022/11/04 03:00:30;;;;;;;0.80;0.80;;;19.60;73.90;;;;;;5088512;28;43423;-71
2022/11/04 03:03:02;;;;;;;0.80;0.80;;;19.60;73.90;;;;;;5088227;28;43449;-70
2022/11/04 03:05:32;;;;;;;1.00;1.00;;;19.50;74.00;;;;;;5092522;27;43450;-71
2022/11/04 03:08:01;;;;;;;0.90;0.90;;;19.40;74.20;;;;;;5088206;28;43635;-71
2022/11/04 03:10:33;;;;;;;0.80;0.80;;;19.30;74.70;;;;;;5087896;28;43462;-72
2022/11/04 03:13:04;;;;;;;0.80;0.80;;;19.30;74.90;;;;;;5088577;28;43454;-72
2022/11/04 03:15:33;;;;;;;0.90;0.90;;;19.30;74.90;;;;;;5069765;28;43456;-71
2022/11/04 03:18:06;;;;;;;1.00;1.00;;;19.20;74.90;;;;;;5087285;27;43919;-70
2022/11/04 03:20:35;;;;;;;1.00;1.00;;;19.20;75.00;;;;;;5070020;28;45104;-73
2022/11/04 03:23:03;;;;;;;0.80;0.80;;;19.10;75.20;;;;;;5087987;28;43455;-72
2022/11/04 03:25:33;;;;;;;0.90;0.90;;;19.10;75.40;;;;;;5088398;28;43379;-73
2022/11/04 03:28:04;;;;;;;0.80;0.80;;;19.10;75.30;;;;;;5087947;28;43888;-72
2022/11/04 03:30:37;;;;;;;1.00;1.00;;;19.10;75.30;;;;;;5086967;28;43360;-71
2022/11/04 03:33:08;;;;;;;0.80;0.80;;;19.10;75.30;;;;;;5087771;28;43368;-71
2022/11/04 03:35:37;;;;;;;0.80;0.80;;;19.10;75.40;;;;;;5088114;28;43809;-71
2022/11/04 03:38:05;;;;;;;0.97;0.97;;;19.00;75.80;;;;;;5087512;28;43854;-70
2022/11/04 03:40:34;;;;;;;0.90;0.90;;;19.10;75.70;;;;;;5068813;28;44842;-71
2022/11/04 03:43:09;;;;;;;0.80;0.80;;;19.20;75.30;;;;;;5086969;28;43961;-71
2022/11/04 03:45:37;;;;;;;0.93;0.93;;;19.40;74.80;;;;;;5082059;28;43433;-72
2022/11/04 03:48:07;;;;;;;0.90;0.90;;;19.50;74.30;;;;;;5087425;28;43611;-72
2022/11/04 03:50:40;;;;;;;0.80;0.80;;;19.50;74.90;;;;;;5088055;27;44701;-73
2022/11/04 03:53:08;;;;;;;0.90;0.90;;;19.40;74.10;;;;;;5082512;28;43427;-71
2022/11/04 03:55:51;;;;;;;0.87;0.87;;;19.40;74.30;;;;;;5087336;28;43526;-71
2022/11/04 03:58:25;;;;;;;0.90;0.90;;;19.30;74.50;;;;;;5087061;28;44018;-72
2022/11/04 04:00:55;;;;;;;0.70;0.70;;;19.20;75.00;;;;;;5086984;28;43420;-72
2022/11/04 04:03:27;;;;;;;0.80;0.80;;;19.20;75.80;;;;;;5086635;28;43412;-72
2022/11/04 04:05:55;;;;;;;0.70;0.70;;;19.20;75.00;;;;;;5087711;28;43431;-72
2022/11/04 04:08:29;;;;;;;0.80;0.80;;;19.10;75.00;;;;;;5086784;28;43907;-72
2022/11/04 04:11:02;;;;;;;0.80;0.80;;;19.10;75.10;;;;;;5087149;28;44004;-72
2022/11/04 04:13:35;;;;;;;0.80;0.80;;;19.10;75.60;;;;;;5086161;28;43442;-72
2022/11/04 04:16:04;;;;;;;0.90;0.90;;;19.10;75.70;;;;;;5087672;28;43452;-72
2022/11/04 04:18:36;;;;;;;1.30;1.30;;;19.20;75.40;;;;;;5087465;28;43604;-70
2022/11/04 04:21:06;;;;;;;2.73;1.60;;;19.30;74.90;;;;;;5086799;28;43486;-71
2022/11/04 04:29:05;;;;;;;2.57;1.70;;;19.40;74.30;;;;;;5082753;27;43896;-72
2022/11/04 04:31:56;;;;;;;2.23;2.03;;;19.30;74.40;;;;;;5079551;28;43794;-74
2022/11/04 04:34:26;;;;;;;2.30;2.10;;;19.20;74.60;;;;;;5064864;28;43489;-72
2022/11/04 04:36:58;;;;;;;4.73;2.40;;;19.20;75.20;;;;;;5087141;28;43556;-73
2022/11/04 04:45:03;;;;;;;3.40;2.30;;;19.10;75.20;;;;;;5086595;28;43418;-73
2022/11/04 04:47:40;;;;;;;3.40;2.60;;;19.10;75.30;;;;;;5087646;28;43386;-72
2022/11/04 04:50:10;;;;;;;3.53;2.90;;;19.00;75.50;;;;;;5084666;28;43672;-72
2022/11/04 04:52:39;;;;;;;3.13;2.60;;;19.00;75.70;;;;;;5084422;27;45043;-72
2022/11/04 04:55:07;;;;;;;4.13;2.67;;;19.00;75.50;;;;;;5086307;28;43433;-71
2022/11/04 04:57:35;;;;;;;2.60;2.40;;;19.00;75.40;;;;;;5085692;27;43530;-72
2022/11/04 05:00:04;;;;;;;4.90;2.93;;;19.00;75.40;;;;;;5086292;28;43860;-73
2022/11/04 05:02:32;;;;;;;4.50;2.80;;;19.00;75.50;;;;;;5085939;28;43522;-70
2022/11/04 05:05:00;;;;;;;3.20;2.90;;;19.00;76.70;;;;;;5086386;28;43435;-71
2022/11/04 05:07:29;;;;;;;4.03;2.80;;;19.00;75.80;;;;;;5086816;28;43471;-72
2022/11/04 05:09:57;;;;;;;5.90;3.10;;;19.10;75.50;;;;;;5086031;28;43850;-70
2022/11/04 05:13:24;;;;;;;3.63;2.87;;;19.30;75.10;;;;;;5068344;28;44280;-71
2022/11/04 05:15:14;;;;;;;4.47;2.90;;;19.40;74.50;;;;;;5085885;28;43483;-71
2022/11/04 05:17:42;;;;;;;3.87;2.47;;;19.50;74.30;;;;;;5086100;28;43547;-72
2022/11/04 05:20:10;;;;;;;3.10;2.80;;;19.40;74.00;;;;;;5086084;28;43934;-74
2022/11/04 05:22:40;;;;;;;2.80;2.30;;;19.40;74.20;;;;;;5086168;28;43549;-71
2022/11/04 05:25:08;;;;;;;2.57;2.37;;;19.30;74.40;;;;;;5085938;28;43823;-72
2022/11/04 05:27:36;;;;;;;4.17;2.70;;;19.20;74.70;;;;;;5085941;28;43507;-70
2022/11/04 05:30:05;;;;;;;4.13;2.83;;;19.20;75.30;;;;;;5080183;28;43949;-73
2022/11/04 05:32:33;;;;;;;3.23;2.70;;;19.20;75.10;;;;;;5086043;28;44120;-71
2022/11/04 05:35:00;;;;;;;4.03;2.70;;;19.20;75.10;;;;;;5086175;28;43476;-71
2022/11/04 05:37:28;;;;;;;2.47;2.33;;;19.10;75.10;;;;;;5086643;28;43381;-72
2022/11/04 05:39:58;;;;;;;3.17;2.87;;;19.10;75.20;;;;;;5085404;28;43849;-71
2022/11/04 05:42:25;;;;;;;2.50;2.27;;;19.10;75.70;;;;;;5069904;28;44286;-73
2022/11/04 05:44:53;;;;;;;3.20;2.87;;;19.10;75.70;;;;;;5089182;28;43478;-72
2022/11/04 05:47:21;;;;;;;3.00;2.67;;;19.20;75.40;;;;;;5089942;28;44163;-70
2022/11/04 05:49:49;;;;;;;2.60;2.40;;;19.20;75.10;;;;;;5089497;28;43948;-72
2022/11/04 05:52:17;;;;;;;2.77;2.40;;;19.20;74.80;;;;;;5088908;27;43537;-71
2022/11/04 05:54:45;;;;;;;3.73;2.93;;;19.20;75.00;;;;;;5083953;28;43921;-71
2022/11/04 05:57:14;;;;;;;2.47;2.27;;;19.20;75.20;;;;;;5094157;27;43507;-71
2022/11/04 05:59:42;;;;;;;2.57;2.37;;;19.20;75.00;;;;;;5089318;28;43606;-73
2022/11/04 06:02:10;;;;;;;2.57;2.37;;;19.20;75.00;;;;;;5088866;28;43561;-72
2022/11/04 06:04:38;;;;;;;2.43;2.20;;;19.20;75.10;;;;;;5088858;28;43339;-71
2022/11/04 06:07:06;;;;;;;3.00;2.50;;;19.10;75.20;;;;;;5089369;28;43445;-72
2022/11/04 06:09:40;;;;;;;2.37;2.20;;;19.10;75.70;;;;;;5088933;28;43607;-73
2022/11/04 06:12:08;;;;;;;2.57;2.37;;;19.10;75.60;;;;;;5092777;27;46277;-71
2022/11/04 06:14:38;;;;;;;2.83;2.50;;;19.20;75.20;;;;;;5088932;28;43389;-71
2022/11/04 06:17:05;;;;;;;3.00;2.53;;;19.20;74.90;;;;;;5089568;28;43559;-71
2022/11/04 06:19:33;;;;;;;2.37;2.17;;;19.20;74.60;;;;;;5069428;28;46020;-71
2022/11/04 06:22:02;;;;;;;2.90;2.60;;;19.20;74.80;;;;;;5088853;28;43474;-71
2022/11/04 06:24:30;;;;;;;3.03;2.73;;;19.20;75.00;;;;;;5089012;28;43979;-72
2022/11/04 06:26:58;;;;;;;3.17;2.27;;;19.20;74.90;;;;;;5089018;28;43459;-73
2022/11/04 06:29:26;;;;;;;2.50;2.30;;;19.20;74.90;;;;;;5088868;28;43848;-70
2022/11/04 06:31:55;;;;;;;2.30;2.10;;;19.20;75.00;;;;;;5088996;28;43521;-71
2022/11/04 06:34:23;;;;;;;2.20;2.10;;;19.10;75.10;;;;;;5088613;28;43420;-71
2022/11/04 06:36:51;;;;;;;2.40;2.20;;;19.10;75.50;;;;;;5089029;28;43412;-71
2022/11/04 06:39:19;;;;;;;2.43;2.23;;;19.10;75.60;;;;;;5088669;28;43624;-72
2022/11/04 06:41:47;;;;;;;2.50;2.30;;;19.10;75.40;;;;;;5086206;28;43519;-71
2022/11/04 06:44:18;;;;;;;2.27;2.17;;;19.10;75.40;;;;;;5088804;28;44522;-71
2022/11/04 06:46:46;;;;;;;2.47;2.30;;;19.00;75.40;;;;;;5085629;28;43419;-72
2022/11/04 06:49:16;;;;;;;2.07;1.97;;;19.00;75.50;;;;;;5088205;28;43595;-71
2022/11/04 06:51:44;;;;;;;1.87;1.77;;;19.00;75.90;;;;;;5087871;27;43569;-73
2022/11/04 06:54:12;;;;;;;2.40;2.30;;;19.00;75.70;;;;;;5084016;28;43432;-71
2022/11/04 06:56:40;;;;;;;2.30;2.17;;;19.20;75.50;;;;;;5088845;28;43429;-70
2022/11/04 06:59:08;;;;;;;1.90;1.80;;;19.30;74.90;;;;;;5088208;28;44068;-72
2022/11/04 07:01:36;;;;;;;2.27;2.17;;;19.40;74.60;;;;;;5088419;28;43562;-71
2022/11/04 07:04:05;;;;;;;2.40;2.20;;;19.40;74.30;;;;;;5088614;28;43402;-71
2022/11/04 07:06:34;;;;;;;2.20;2.10;;;19.40;74.30;;;;;;5088927;28;43573;-71
2022/11/04 07:09:06;;;;;;;2.03;1.93;;;19.30;74.40;;;;;;5085508;28;43740;-72
2022/11/04 07:11:34;;;;;;;2.37;2.17;;;19.20;74.60;;;;;;5088267;28;43435;-71
2022/11/04 07:14:02;;;;;;;2.13;2.03;;;19.20;75.10;;;;;;5069909;28;43628;-73
2022/11/04 07:16:30;;;;;;;2.00;1.90;;;19.10;75.30;;;;;;5070277;28;43424;-72
2022/11/04 07:18:58;;;;;;;2.10;1.97;;;19.10;75.20;;;;;;5087800;28;43860;-71
2022/11/04 07:21:26;;;;;;;1.87;1.77;;;19.10;75.20;;;;;;5088009;28;43524;-71
2022/11/04 07:23:55;;;;;;;1.90;1.77;;;19.10;75.30;;;;;;5087914;28;43426;-71
2022/11/04 07:26:24;;;;;;;2.00;1.90;;;19.00;75.40;;;;;;5088509;28;44042;-71
2022/11/04 07:28:52;;;;;;;2.33;2.10;;;19.00;75.80;;;;;;5087921;28;43616;-72
2022/11/04 07:31:21;;;;;;;1.73;1.73;;;19.00;76.20;;;;;;5085069;27;44423;-72
2022/11/04 07:33:50;;;;;;;1.97;1.87;;;19.00;75.40;;;;;;5086750;28;43562;-72
2022/11/04 07:36:18;;;;;;;2.07;1.87;;;19.00;75.50;;;;;;5087755;28;43577;-73
2022/11/04 07:38:46;;;;;;;2.20;2.10;;;19.00;75.60;;;;;;5087679;28;43632;-71
2022/11/04 07:41:16;;;;;;;2.30;2.20;;;19.00;76.00;;;;;;5083766;28;43550;-72
2022/11/04 07:43:48;;;;;;;2.30;2.10;;;19.00;75.90;;;;;;5090745;27;43947;-73
2022/11/04 07:46:16;;;;;;;2.00;1.90;;;19.10;75.70;;;;;;5087940;28;43436;-71
2022/11/04 07:48:44;;;;;;;2.17;2.07;;;19.20;75.20;;;;;;5086131;28;43606;-72
2022/11/04 07:51:13;;;;;;;1.90;1.80;;;19.30;74.70;;;;;;5087233;27;43916;-72
2022/11/04 07:53:41;;;;;;;2.00;1.90;;;19.40;74.50;;;;;;5086712;28;43925;-72
2022/11/04 07:56:11;;;;;;;1.80;1.70;;;19.40;74.40;;;;;;5088176;28;43438;-71
2022/11/04 07:58:40;;;;;;;1.80;1.70;;;19.30;74.40;;;;;;5087275;28;44318;-71
2022/11/04 08:01:09;;;;;;;2.13;1.93;;;19.20;74.60;;;;;;5086877;28;43490;-72
2022/11/04 08:03:37;;;;;;;1.90;1.80;;;19.20;74.80;;;;;;5065324;28;44038;-72
2022/11/04 08:06:07;;;;;;;1.90;1.80;;;19.10;75.30;;;;;;5047371;28;43398;-72
2022/11/04 08:08:36;;;;;;;2.00;1.90;;;19.10;75.20;;;;;;5045470;28;45511;-71
2022/11/04 08:11:05;;;;;;;2.20;2.10;;;19.10;75.20;;;;;;5046558;28;43722;-73
2022/11/04 08:13:35;;;;;;;1.70;1.60;;;19.10;75.30;;;;;;5045586;28;43523;-72
2022/11/04 08:16:06;;;;;;;1.63;1.63;;;19.00;75.30;;;;;;5047502;28;43387;-71
2022/11/04 08:18:34;;;;;;;2.03;1.83;;;19.00;75.80;;;;;;5046001;28;43829;-72
2022/11/04 08:21:03;;;;;;;2.00;1.90;;;19.00;75.80;;;;;;5046895;28;43784;-71
2022/11/04 08:23:31;;;;;;;1.90;1.80;;;19.10;75.40;;;;;;5045435;28;43456;-71
2022/11/04 08:25:59;;;;;;;1.97;1.87;;;19.20;75.10;;;;;;5047328;28;43462;-72
2022/11/04 08:28:28;;;;;;;1.90;1.80;;;19.20;74.90;;;;;;5046421;28;43614;-72
2022/11/04 08:30:57;;;;;;;2.10;2.00;;;19.20;74.90;;;;;;5046472;28;43454;-72
2022/11/04 08:33:26;;;;;;;1.63;1.60;;;19.10;75.10;;;;;;5046142;28;44693;-71
2022/11/04 08:35:55;;;;;;;1.83;1.73;;;19.20;75.20;;;;;;5046821;28;43449;-71
2022/11/04 08:38:24;;;;;;;1.77;1.70;;;19.10;75.00;;;;;;5045972;28;43907;-71
2022/11/04 08:40:52;;;;;;;1.40;1.40;;;19.10;75.10;;;;;;5040128;28;43470;-72
2022/11/04 08:43:26;;;;;;;1.63;1.63;;;19.10;75.30;;;;;;5046513;28;43435;-72
2022/11/04 08:45:54;;;;;;;1.83;1.77;;;19.00;75.60;;;;;;5043891;28;43448;-73
2022/11/04 08:48:22;;;;;;;1.80;1.70;;;19.00;75.60;;;;;;5046174;28;43893;-72
2022/11/04 08:50:52;;;;;;;1.80;1.77;;;19.00;75.40;;;;;;5044616;28;44446;-70
2022/11/04 08:53:20;;;;;;;1.80;1.70;;;19.00;75.40;;;;;;5046128;28;43868;-71
2022/11/04 08:55:48;;;;;;;1.80;1.70;;;19.00;75.50;;;;;;5044852;28;43517;-71
2022/11/04 08:58:16;;;;;;;1.90;1.80;;;19.00;75.60;;;;;;5046167;28;44076;-72
2022/11/04 09:00:44;;;;;;;1.60;1.50;;;19.00;76.10;;;;;;5045486;28;43454;-71
2022/11/04 09:03:12;;;;;;;1.93;1.83;;;19.00;75.80;;;;;;5072454;28;43546;-72
2022/11/04 09:05:43;;;;;;;1.70;1.60;;;19.10;75.50;;;;;;5087018;28;43444;-72
2022/11/04 09:08:13;;;;;;;1.60;1.60;;;19.20;75.10;;;;;;5086654;28;43943;-71
2022/11/04 09:10:42;;;;;;;2.10;2.00;;;19.20;74.90;;;;;;5068928;28;44986;-71
2022/11/04 09:13:10;;;;;;;1.50;1.50;;;19.20;75.10;;;;;;5086185;28;43936;-72
2022/11/04 09:15:38;;;;;;;1.90;1.80;;;19.20;75.20;;;;;;5086188;27;44480;-72
2022/11/04 09:18:07;;;;;;;1.57;1.57;;;19.20;75.00;;;;;;5086243;28;43993;-72
2022/11/04 09:20:37;;;;;;;1.30;1.30;;;19.10;75.00;;;;;;5086488;28;43403;-73
2022/11/04 09:23:05;;;;;;;1.60;1.60;;;19.10;75.10;;;;;;5086352;28;43514;-71
2022/11/04 09:25:35;;;;;;;2.33;1.67;;;19.00;75.20;;;;;;5086644;28;43875;-74
2022/11/04 09:28:03;;;;;;;1.90;1.80;;;19.00;75.70;;;;;;5086291;28;43595;-72
2022/11/04 09:30:31;;;;;;;1.60;1.50;;;19.00;75.70;;;;;;5085992;27;44791;-71
2022/11/04 09:32:59;;;;;;;1.53;1.53;;;19.00;75.50;;;;;;5068343;28;43474;-71
2022/11/04 09:35:27;;;;;;;1.80;1.70;;;19.00;75.50;;;;;;5086566;28;43458;-72
2022/11/04 09:37:55;;;;;;;1.93;1.90;;;19.00;75.60;;;;;;5085941;28;43841;-72
2022/11/04 09:40:24;;;;;;;1.63;1.63;;;18.90;75.70;;;;;;5082885;28;43463;-71
2022/11/04 09:42:59;;;;;;;1.53;1.50;;;18.90;76.00;;;;;;5085998;28;43912;-72
2022/11/04 09:45:28;;;;;;;1.53;1.53;;;19.00;75.90;;;;;;5068387;28;43506;-72
2022/11/04 09:47:58;;;;;;;1.70;1.67;;;19.10;75.50;;;;;;5085777;28;43770;-72
2022/11/04 09:50:28;;;;;;;1.73;1.63;;;19.20;75.20;;;;;;5067438;28;44890;-72
2022/11/04 09:52:58;;;;;;;1.40;1.40;;;19.20;75.00;;;;;;5085739;28;43494;-70
2022/11/04 09:55:29;;;;;;;2.00;1.90;;;19.10;75.00;;;;;;5086360;28;43543;-70
2022/11/04 09:57:58;;;;;;;1.60;1.60;;;19.10;75.30;;;;;;5079266;28;43984;-72
2022/11/04 10:00:27;;;;;;;1.90;1.80;;;19.10;75.10;;;;;;5079627;28;43317;-71
2022/11/04 10:02:59;;;;;;;1.33;1.33;;;19.10;75.00;;;;;;5085422;28;44099;-73
2022/11/04 10:05:34;;;;;;;1.50;1.50;;;19.10;75.10;;;;;;5080633;28;43383;-71
2022/11/04 10:08:18;;;;;;;1.50;1.40;;;19.00;75.20;;;;;;5081140;28;43874;-72
2022/11/04 10:10:49;;;;;;;1.77;1.70;;;19.00;75.80;;;;;;5083208;28;43469;-72
2022/11/04 10:13:23;;;;;;;1.67;1.67;;;19.00;75.50;;;;;;5085344;28;43536;-72
2022/11/04 10:16:07;;;;;;;1.20;1.20;;;19.00;75.50;;;;;;5085144;28;43396;-70
2022/11/04 10:18:43;;;;;;;1.30;1.30;;;19.00;75.60;;;;;;5085501;28;44023;-72
2022/11/04 10:21:15;;;;;;;1.30;1.30;;;18.90;75.60;;;;;;5085536;28;43477;-72
2022/11/04 10:23:44;;;;;;;1.40;1.37;;;18.90;76.10;;;;;;5085423;28;43511;-72
2022/11/04 10:26:15;;;;;;;1.40;1.40;;;19.00;76.10;;;;;;5085432;28;43749;-72
2022/11/04 10:28:47;;;;;;;1.60;1.50;;;19.00;75.60;;;;;;5069876;28;45591;-71
2022/11/04 10:31:16;;;;;;;1.30;1.30;;;19.20;75.30;;;;;;5067375;28;44281;-71
2022/11/04 10:33:45;;;;;;;1.50;1.50;;;19.30;74.80;;;;;;5088973;28;43435;-71
2022/11/04 10:36:13;;;;;;;1.53;1.53;;;19.30;74.50;;;;;;5086210;28;43537;-72
2022/11/04 10:38:42;;;;;;;1.37;1.37;;;19.30;74.50;;;;;;5088850;27;45810;-73
2022/11/04 10:41:18;;;;;;;1.00;1.00;;;19.20;74.60;;;;;;5088554;28;44077;-72
2022/11/04 10:43:47;;;;;;;1.40;1.40;;;19.20;74.80;;;;;;5070135;28;43472;-72
2022/11/04 10:46:22;;;;;;;1.30;1.30;;;19.10;75.00;;;;;;5089093;28;43538;-72
2022/11/04 10:48:51;;;;;;;1.50;1.47;;;19.10;75.50;;;;;;5088752;28;43607;-72
2022/11/04 10:51:20;;;;;;;1.47;1.47;;;19.00;75.40;;;;;;5088094;27;43454;-71
2022/11/04 10:53:50;;;;;;;1.50;1.50;;;19.00;75.40;;;;;;5088632;28;43463;-71
2022/11/04 10:56:21;;;;;;;1.40;1.40;;;19.00;75.40;;;;;;5064058;28;43416;-71
2022/11/04 10:58:51;;;;;;;1.50;1.50;;;19.00;75.50;;;;;;5088326;28;43691;-73
2022/11/04 11:01:24;;;;;;;1.47;1.47;;;18.90;75.90;;;;;;5085880;28;43471;-72
2022/11/04 11:03:53;;;;;;;1.37;1.37;;;18.90;75.80;;;;;;5071508;28;44110;-72
2022/11/04 11:06:24;;;;;;;1.27;1.27;;;18.90;75.60;;;;;;5070724;28;43614;-72
2022/11/04 11:08:53;;;;;;;1.40;1.37;;;18.90;75.60;;;;;;5069805;28;45631;-71
2022/11/04 11:11:38;;;;;;;1.40;1.40;;;18.90;75.70;;;;;;5069547;28;44898;-71
2022/11/04 11:14:20;;;;;;;1.57;1.47;;;18.90;76.00;;;;;;5088767;28;43677;-71
2022/11/04 11:16:48;;;;;;;1.20;1.20;;;18.90;76.10;;;;;;5088700;28;43849;-71
2022/11/04 11:19:17;;;;;;;1.63;1.53;;;19.00;75.90;;;;;;5088234;28;44297;-71
2022/11/04 11:21:47;;;;;;;1.50;1.50;;;19.10;75.40;;;;;;5087632;28;43488;-71
2022/11/04 11:24:19;;;;;;;1.20;1.20;;;19.20;75.00;;;;;;5067612;28;43837;-72
2022/11/04 11:26:48;;;;;;;1.30;1.30;;;19.30;74.80;;;;;;5088461;28;43468;-71
2022/11/04 11:29:22;;;;;;;1.13;1.13;;;19.20;74.60;;;;;;5087996;28;43868;-71
2022/11/04 11:31:50;;;;;;;1.13;1.13;;;19.20;74.70;;;;;;5087961;28;44344;-71
2022/11/04 11:34:21;;;;;;;1.40;1.40;;;19.10;74.80;;;;;;5083497;28;44166;-72
2022/11/04 11:36:49;;;;;;;1.20;1.20;;;19.10;75.20;;;;;;5088319;28;44011;-72
2022/11/04 11:39:18;;;;;;;1.00;1.00;;;19.00;75.50;;;;;;5087287;27;43904;-72
2022/11/04 11:41:52;;;;;;;1.27;1.27;;;19.00;75.40;;;;;;5083454;28;43549;-72
2022/11/04 11:44:26;;;;;;;1.30;1.30;;;19.00;75.40;;;;;;5087925;28;43482;-72
2022/11/04 11:46:55;;;;;;;1.20;1.20;;;19.00;75.50;;;;;;5088105;28;43987;-73
2022/11/04 11:49:27;;;;;;;1.40;1.40;;;18.90;75.50;;;;;;5087780;28;43611;-72
2022/11/04 11:51:56;;;;;;;1.60;1.50;;;18.90;76.00;;;;;;5087356;27;44179;-71
2022/11/04 11:54:29;;;;;;;1.33;1.33;;;18.90;75.70;;;;;;5087810;28;43387;-72
2022/11/04 11:56:58;;;;;;;1.00;1.00;;;18.90;75.70;;;;;;5086745;28;43963;-70
2022/11/04 11:59:48;;;;;;;1.10;1.10;;;18.90;75.60;;;;;;5082231;28;43665;-72
2022/11/04 12:02:42;;;;;;;1.23;1.20;;;18.90;75.70;;;;;;5085294;28;44003;-72
2022/11/04 12:05:10;;;;;;;1.20;1.20;;;18.90;76.10;;;;;;5087470;28;43442;-72
2022/11/04 12:08:03;;;;;;;1.07;1.07;;;18.90;76.20;;;;;;5088127;28;43500;-72
2022/11/04 12:10:54;;;;;;;1.13;1.13;;;19.00;75.90;;;;;;5086124;28;44035;-71
2022/11/04 12:13:23;;;;;;;1.30;1.30;;;19.10;75.30;;;;;;5068694;28;44678;-72
2022/11/04 12:16:09;;;;;;;1.23;1.23;;;19.20;74.90;;;;;;5087435;28;43805;-72
2022/11/04 12:18:47;;;;;;;1.30;1.30;;;19.30;74.50;;;;;;5067718;28;43504;-72
2022/11/04 12:21:18;;;;;;;1.13;1.13;;;19.20;74.50;;;;;;5087281;28;43928;-70
2022/11/04 12:23:49;;;;;;;1.13;1.13;;;19.20;74.60;;;;;;5086947;28;43447;-73
2022/11/04 12:26:25;;;;;;;1.10;1.10;;;19.10;74.90;;;;;;5087253;28;43413;-71
2022/11/04 12:29:09;;;;;;;1.10;1.10;;;19.10;75.40;;;;;;5071111;28;43568;-72
2022/11/04 12:31:42;;;;;;;1.10;1.10;;;19.00;75.40;;;;;;5087088;28;43912;-72
2022/11/04 12:34:16;;;;;;;1.20;1.20;;;19.00;75.40;;;;;;5080954;28;43383;-73
2022/11/04 12:36:59;;;;;;;1.00;1.00;;;19.00;75.40;;;;;;5087030;28;43434;-71
2022/11/04 12:39:39;;;;;;;1.30;1.30;;;19.00;75.50;;;;;;5087183;28;43536;-71
2022/11/04 12:42:12;;;;;;;1.20;1.20;;;18.90;75.90;;;;;;5079354;27;45713;-71
2022/11/04 12:44:53;;;;;;;1.10;1.10;;;18.90;76.00;;;;;;5080070;28;44049;-72
2022/11/04 12:47:29;;;;;;;1.00;1.00;;;19.00;75.80;;;;;;5068460;28;43992;-71
2022/11/04 12:50:18;;;;;;;1.20;1.20;;;19.10;75.30;;;;;;5086955;27;43654;-73
2022/11/04 12:52:54;;;;;;;1.03;1.03;;;19.10;75.00;;;;;;5086073;28;43842;-72
2022/11/04 12:55:35;;;;;;;1.10;1.10;;;19.10;75.00;;;;;;5087470;27;44707;-71
2022/11/04 12:58:20;;;;;;;1.33;1.17;;;19.10;75.40;;;;;;5086776;28;43514;-70
2022/11/04 13:00:50;;;;;;;1.10;1.10;;;19.10;75.30;;;;;;5087051;28;43430;-72
2022/11/04 13:03:21;;;;;;;1.20;1.20;;;19.10;75.20;;;;;;5086318;28;43870;-72
2022/11/04 13:05:50;;;;;;;1.10;1.10;;;19.00;75.20;;;;;;5086365;28;43477;-72
2022/11/04 13:08:22;;;;;;;1.10;1.10;;;19.00;75.40;;;;;;5068205;28;43454;-71
2022/11/04 13:10:53;;;;;;;1.20;1.20;;;19.00;75.90;;;;;;5086788;28;43525;-71
2022/11/04 13:13:22;;;;;;;1.17;1.17;;;19.00;75.80;;;;;;5086285;28;43602;-71
2022/11/04 13:15:52;;;;;;;1.23;1.23;;;19.00;75.70;;;;;;5085731;28;43417;-72
2022/11/04 13:18:21;;;;;;;0.90;0.90;;;18.90;76.30;;;;;;5086524;28;43456;-73
2022/11/04 13:20:52;;;;;;;1.40;1.40;;;18.90;75.70;;;;;;5086683;28;43411;-71
2022/11/04 13:23:29;;;;;;;1.03;1.03;;;18.90;75.90;;;;;;5084081;28;43718;-72
2022/11/04 13:25:57;;;;;;;1.00;1.00;;;18.90;77.00;;;;;;5074435;28;43472;-71
2022/11/04 13:28:25;;;;;;;1.30;1.30;;;18.90;75.90;;;;;;5086447;28;43371;-72
2022/11/04 13:30:59;;;;;;;1.20;1.20;;;19.00;75.70;;;;;;5086880;28;43343;-72
2022/11/04 13:33:33;;;;;;;1.00;1.00;;;19.10;75.30;;;;;;5086124;28;43588;-72
2022/11/04 13:36:04;;;;;;;1.10;1.10;;;19.10;75.00;;;;;;5086642;28;43375;-71
2022/11/04 13:38:34;;;;;;;1.00;1.00;;;19.10;75.20;;;;;;5085917;28;43447;-72